createdAt,value
2022-12-05T00:01:02.581Z,11.90
2022-12-05T00:03:29.321Z,19.93
2022-12-05T00:05:56.464Z,22.57
2022-12-05T00:08:23.252Z,17.70
2022-12-05T00:10:50.325Z,23.00
2022-12-05T00:13:17.042Z,21.03
2022-12-05T00:15:44.121Z,15.53
2022-12-05T00:18:10.873Z,18.70
2022-12-05T00:20:37.896Z,24.33
2022-12-05T00:23:04.668Z,18.27
2022-12-05T00:25:32.226Z,25.77
2022-12-05T00:27:58.980Z,18.23
2022-12-05T00:30:26.010Z,25.70
2022-12-05T00:32:52.829Z,29.27
2022-12-05T00:35:19.940Z,12.33
2022-12-05T00:37:46.725Z,9.00
2022-12-05T00:40:13.845Z,23.93
2022-12-05T00:42:40.852Z,20.87
2022-12-05T00:45:08.573Z,19.20
2022-12-05T00:47:38.597Z,21.63
2022-12-05T00:50:06.349Z,16.00
2022-12-05T00:52:33.150Z,20.00
2022-12-05T00:55:00.235Z,22.33
2022-12-05T00:57:27.299Z,22.03
2022-12-05T00:59:54.870Z,23.87
2022-12-05T01:02:21.889Z,22.77
2022-12-05T01:04:49.029Z,19.43
2022-12-05T01:07:15.842Z,14.57
2022-12-05T01:09:42.915Z,28.23
2022-12-05T01:12:09.719Z,27.00
2022-12-05T01:14:36.802Z,23.40
2022-12-05T01:17:03.905Z,12.00
2022-12-05T01:19:32.903Z,15.43
2022-12-05T01:22:00.504Z,18.10
2022-12-05T01:24:29.606Z,24.77
2022-12-05T01:26:57.355Z,22.55
2022-12-05T01:29:25.134Z,12.83
2022-12-05T01:31:52.972Z,24.00
2022-12-05T01:34:21.179Z,10.82
2022-12-05T01:36:48.156Z,29.73
2022-12-05T01:39:16.192Z,25.77
2022-12-05T01:41:46.690Z,26.17
2022-12-05T01:44:13.759Z,8.53
2022-12-05T01:46:51.880Z,21.73
2022-12-05T01:49:27.617Z,14.70
2022-12-05T01:52:00.732Z,22.30
2022-12-05T01:54:29.134Z,26.47
2022-12-05T01:57:02.880Z,21.53
2022-12-05T01:59:36.018Z,22.37
2022-12-05T02:02:03.715Z,16.20
2022-12-05T02:04:33.001Z,19.55
2022-12-05T02:06:59.797Z,22.98
2022-12-05T02:09:26.821Z,24.03
2022-12-05T02:11:58.260Z,24.63
2022-12-05T02:14:39.898Z,17.80
2022-12-05T02:17:28.160Z,26.90
2022-12-05T02:19:55.380Z,18.55
2022-12-05T02:22:54.711Z,24.17
2022-12-05T02:25:40.712Z,17.53
2022-12-05T02:28:16.533Z,23.50
2022-12-05T02:31:00.220Z,20.60
2022-12-05T02:33:48.387Z,21.63
2022-12-05T02:36:38.732Z,22.88
2022-12-05T02:39:23.952Z,25.87
2022-12-05T02:41:59.048Z,28.43
2022-12-05T02:44:37.939Z,25.27
2022-12-05T02:47:07.736Z,20.63
2022-12-05T02:49:37.184Z,24.67
2022-12-05T02:52:08.770Z,26.37
2022-12-05T02:54:44.491Z,22.37
2022-12-05T02:57:13.423Z,19.00
2022-12-05T02:59:40.660Z,28.90
2022-12-05T03:02:24.604Z,25.63
2022-12-05T03:04:51.512Z,23.47
2022-12-05T03:07:21.011Z,24.87
2022-12-05T03:10:05.002Z,21.47
2022-12-05T03:12:46.565Z,19.67
2022-12-05T03:15:20.161Z,28.00
2022-12-05T03:18:06.976Z,16.53
2022-12-05T03:20:41.615Z,25.83
2022-12-05T03:23:46.163Z,24.67
2022-12-05T03:26:31.766Z,23.40
2022-12-05T03:29:10.801Z,21.67
2022-12-05T03:31:46.591Z,10.27
2022-12-05T03:34:26.153Z,16.80
2022-12-05T03:36:54.672Z,24.00
2022-12-05T03:39:30.523Z,13.27
2022-12-05T03:42:09.905Z,23.20
2022-12-05T03:44:50.568Z,24.37
2022-12-05T03:47:45.623Z,21.60
2022-12-05T03:50:28.713Z,26.03
2022-12-05T03:55:59.372Z,28.13
2022-12-05T03:58:53.230Z,22.23
2022-12-05T04:01:21.964Z,22.17
2022-12-05T04:04:00.169Z,17.23
2022-12-05T04:06:35.165Z,16.23
2022-12-05T04:09:17.730Z,10.80
2022-12-05T04:12:01.670Z,25.07
2022-12-05T04:14:35.406Z,26.97
2022-12-05T04:17:06.643Z,23.23
2022-12-05T04:20:09.382Z,24.83
2022-12-05T04:22:37.873Z,28.67
2022-12-05T04:25:28.397Z,17.88
2022-12-05T04:27:58.579Z,26.77
2022-12-05T04:30:30.228Z,21.57
2022-12-05T04:33:12.660Z,23.70
2022-12-05T04:35:50.197Z,25.57
2022-12-05T04:38:52.555Z,23.50
2022-12-05T04:41:53.888Z,24.07
2022-12-05T04:44:27.693Z,23.70
2022-12-05T04:46:57.253Z,21.40
2022-12-05T04:49:27.694Z,26.70
2022-12-05T04:51:59.829Z,13.37
2022-12-05T04:54:36.497Z,19.87
2022-12-05T04:57:12.548Z,25.27
2022-12-05T04:59:39.791Z,21.90
2022-12-05T05:02:13.321Z,23.97
2022-12-05T05:04:47.696Z,27.07
2022-12-05T05:07:15.429Z,24.03
2022-12-05T05:09:44.186Z,27.83
2022-12-05T05:12:17.212Z,24.70
2022-12-05T05:14:45.934Z,18.40
2022-12-05T05:17:12.704Z,22.67
2022-12-05T05:19:39.757Z,29.13
2022-12-05T05:22:06.560Z,28.10
2022-12-05T05:24:33.608Z,12.60
2022-12-05T05:27:00.355Z,23.27
2022-12-05T05:29:27.492Z,13.80
2022-12-05T05:31:54.280Z,21.27
2022-12-05T05:34:21.301Z,22.73
2022-12-05T05:36:52.797Z,25.17
2022-12-05T05:39:19.932Z,22.23
2022-12-05T05:41:46.684Z,23.40
2022-12-05T05:44:13.760Z,24.30
2022-12-05T05:46:40.662Z,27.80
2022-12-05T05:49:07.749Z,29.13
2022-12-05T05:51:34.637Z,27.73
2022-12-05T05:54:01.965Z,27.60
2022-12-05T05:56:29.234Z,23.87
2022-12-05T05:59:01.914Z,31.90
2022-12-05T06:01:29.946Z,27.73
2022-12-05T06:03:58.293Z,25.40
2022-12-05T06:06:25.593Z,16.95
2022-12-05T06:08:52.759Z,30.87
2022-12-05T06:11:26.529Z,28.63
2022-12-05T06:14:01.302Z,31.50
2022-12-05T06:16:30.108Z,27.17
2022-12-05T06:21:24.668Z,18.37
2022-12-05T06:23:51.876Z,21.03
2022-12-05T06:26:20.976Z,28.47
2022-12-05T06:28:48.397Z,25.60
2022-12-05T06:31:18.761Z,30.50
2022-12-05T06:33:46.263Z,29.93
2022-12-05T06:36:18.708Z,28.27
2022-12-05T06:38:45.966Z,29.87
2022-12-05T06:41:16.683Z,24.60
2022-12-05T06:43:44.108Z,22.03
2022-12-05T06:46:13.495Z,26.77
2022-12-05T06:48:40.660Z,30.30
2022-12-05T06:51:11.487Z,37.30
2022-12-05T06:53:39.685Z,28.73
2022-12-05T06:56:11.536Z,26.20
2022-12-05T06:58:38.592Z,28.93
2022-12-05T07:01:24.285Z,29.57
2022-12-05T07:03:51.685Z,27.93
2022-12-05T07:06:18.687Z,27.60
2022-12-05T07:08:45.900Z,31.40
2022-12-05T07:11:12.755Z,29.93
2022-12-05T07:13:39.881Z,32.20
2022-12-05T07:16:07.514Z,29.50
2022-12-05T07:18:36.312Z,29.97
2022-12-05T07:21:13.570Z,31.08
2022-12-05T07:23:42.605Z,29.25
2022-12-05T07:26:11.794Z,29.33
2022-12-05T07:28:38.891Z,34.37
2022-12-05T07:31:11.303Z,29.77
2022-12-05T07:33:38.824Z,33.03
2022-12-05T07:36:08.553Z,25.70
2022-12-05T07:38:36.052Z,31.90
2022-12-05T07:41:12.798Z,32.30
2022-12-05T07:43:41.094Z,28.73
2022-12-05T07:46:11.466Z,27.50
2022-12-05T07:48:39.581Z,36.23
2022-12-05T07:51:07.813Z,28.27
2022-12-05T07:53:35.532Z,30.90
2022-12-05T07:56:04.555Z,30.53
2022-12-05T07:58:32.943Z,29.30
2022-12-05T08:01:11.133Z,35.57
2022-12-05T08:03:38.868Z,45.38
2022-12-05T08:06:08.081Z,42.80
2022-12-05T08:08:35.168Z,35.80
2022-12-05T08:11:07.427Z,39.83
2022-12-05T08:13:34.620Z,41.60
2022-12-05T08:16:06.637Z,34.40
2022-12-05T08:18:34.561Z,27.67
2022-12-05T08:21:03.107Z,32.70
2022-12-05T08:23:31.952Z,27.75
2022-12-05T08:26:17.713Z,26.63
2022-12-05T08:28:45.294Z,27.93
2022-12-05T08:31:19.881Z,27.23
2022-12-05T08:33:47.005Z,33.13
2022-12-05T08:36:15.777Z,25.53
2022-12-05T08:41:12.886Z,30.67
2022-12-05T08:43:40.057Z,27.50
2022-12-05T08:46:07.692Z,25.97
2022-12-05T08:48:36.568Z,28.87
2022-12-05T08:51:08.835Z,27.08
2022-12-05T08:53:42.472Z,23.97
2022-12-05T08:56:11.349Z,21.85
2022-12-05T08:58:39.786Z,20.60
2022-12-05T09:01:21.138Z,21.20
2022-12-05T09:03:48.940Z,22.05
2022-12-05T09:06:21.716Z,25.70
2022-12-05T09:08:50.103Z,25.65
2022-12-05T09:11:21.110Z,24.00
2022-12-05T09:13:48.614Z,21.33
2022-12-05T09:16:22.224Z,22.70
2022-12-05T09:18:50.999Z,22.35
2022-12-05T09:21:23.459Z,25.10
2022-12-05T09:23:51.300Z,21.13
2022-12-05T09:26:21.136Z,27.27
2022-12-05T09:28:47.781Z,30.30
2022-12-05T09:31:21.163Z,26.75
2022-12-05T09:33:49.974Z,32.57
2022-12-05T09:36:25.651Z,25.27
2022-12-05T09:38:54.531Z,37.50
2022-12-05T09:42:03.448Z,26.43
2022-12-05T09:45:05.366Z,26.35
2022-12-05T09:47:48.401Z,27.67
2022-12-05T09:50:30.297Z,26.03
2022-12-05T09:53:06.424Z,31.27
2022-12-05T09:55:44.935Z,31.63
2022-12-05T09:58:21.479Z,23.92
2022-12-05T10:00:51.868Z,16.50
2022-12-05T10:03:41.247Z,19.10
2022-12-05T10:06:15.543Z,23.33
2022-12-05T10:08:57.369Z,26.33
2022-12-05T10:11:46.073Z,26.07
2022-12-05T10:14:19.276Z,27.90
2022-12-05T10:16:55.134Z,20.20
2022-12-05T10:19:32.083Z,22.77
2022-12-05T10:22:30.574Z,20.23
2022-12-05T10:25:03.672Z,22.25
2022-12-05T10:27:40.005Z,22.80
2022-12-05T10:30:16.028Z,21.10
2022-12-05T10:32:59.094Z,21.80
2022-12-05T10:35:32.205Z,26.33
2022-12-05T10:38:03.502Z,21.40
2022-12-05T10:40:38.304Z,24.05
2022-12-05T10:43:06.001Z,26.67
2022-12-05T10:45:33.601Z,26.60
2022-12-05T10:48:00.994Z,22.90
2022-12-05T10:50:32.219Z,22.73
2022-12-05T10:53:02.467Z,21.95
2022-12-05T10:56:06.574Z,21.42
2022-12-05T10:58:32.364Z,22.10
2022-12-05T11:01:09.058Z,26.70
2022-12-05T11:03:39.478Z,28.15
2022-12-05T11:06:24.179Z,23.27
2022-12-05T11:09:04.823Z,20.73
2022-12-05T11:11:33.849Z,28.00
2022-12-05T11:14:01.948Z,38.30
2022-12-05T11:16:31.143Z,29.80
2022-12-05T11:19:23.014Z,26.95
2022-12-05T11:21:50.867Z,23.33
2022-12-05T11:24:31.624Z,26.58
2022-12-05T11:27:18.620Z,24.08
2022-12-05T11:30:00.436Z,20.83
2022-12-05T11:32:34.020Z,22.83
2022-12-05T11:35:13.135Z,24.65
2022-12-05T11:37:53.897Z,20.55
2022-12-05T11:40:48.268Z,18.98
2022-12-05T11:43:15.306Z,17.17
2022-12-05T11:46:06.116Z,19.80
2022-12-05T11:49:15.643Z,20.73
2022-12-05T11:58:06.644Z,17.63
2022-12-05T12:00:36.669Z,19.90
2022-12-05T12:03:15.515Z,20.42
2022-12-05T12:06:15.493Z,19.02
2022-12-05T12:09:06.866Z,18.20
2022-12-05T12:12:02.879Z,20.52
2022-12-05T12:15:00.941Z,17.60
2022-12-05T12:17:46.025Z,17.65
2022-12-05T12:20:27.334Z,16.85
2022-12-05T12:23:00.194Z,22.30
2022-12-05T12:25:38.948Z,19.10
2022-12-05T12:28:21.154Z,16.33
2022-12-05T12:31:18.710Z,16.08
2022-12-05T12:34:16.680Z,22.15
2022-12-05T12:36:53.173Z,17.83
2022-12-05T12:39:46.213Z,17.10
2022-12-05T12:42:29.181Z,21.20
2022-12-05T12:45:33.715Z,19.58
2022-12-05T12:48:11.116Z,20.33
2022-12-05T12:50:44.134Z,21.67
2022-12-05T12:53:13.781Z,18.45
2022-12-05T12:56:08.568Z,14.40
2022-12-05T12:58:47.538Z,21.97
2022-12-05T13:01:23.039Z,19.80
2022-12-05T13:04:02.740Z,42.30
2022-12-05T13:06:40.558Z,25.40
2022-12-05T13:09:17.749Z,21.00
2022-12-05T13:11:46.932Z,21.80
2022-12-05T13:14:17.618Z,21.38
2022-12-05T13:16:50.363Z,27.00
2022-12-05T13:19:44.089Z,20.87
2022-12-05T13:22:11.595Z,20.73
2022-12-05T13:24:39.039Z,27.63
2022-12-05T13:27:08.757Z,22.37
2022-12-05T13:29:41.113Z,26.93
2022-12-05T13:32:25.384Z,27.13
2022-12-05T13:34:52.884Z,25.47
2022-12-05T13:37:47.764Z,29.57
2022-12-05T13:40:56.166Z,31.53
2022-12-05T13:43:29.090Z,24.13
2022-12-05T13:46:07.442Z,24.27
2022-12-05T13:48:39.687Z,31.48
2022-12-05T13:51:20.667Z,28.63
2022-12-05T13:53:50.604Z,30.87
2022-12-05T13:56:20.160Z,26.73
2022-12-05T13:58:58.442Z,33.60
2022-12-05T14:01:26.057Z,31.30
2022-12-05T14:04:02.288Z,22.87
2022-12-05T14:06:34.932Z,26.43
2022-12-05T14:09:03.367Z,25.63
2022-12-05T14:11:30.316Z,29.40
2022-12-05T14:14:04.101Z,26.47
2022-12-05T14:16:31.661Z,32.23
2022-12-05T14:19:12.208Z,42.90
2022-12-05T14:21:55.306Z,37.57
2022-12-05T14:24:55.728Z,30.97
2022-12-05T14:28:00.381Z,24.67
2022-12-05T14:31:11.507Z,29.33
2022-12-05T14:33:38.457Z,28.33
2022-12-05T14:36:31.000Z,32.83
2022-12-05T14:38:57.952Z,29.40
2022-12-05T14:41:34.792Z,29.93
2022-12-05T14:44:08.396Z,33.17
2022-12-05T14:46:36.210Z,27.23
2022-12-05T14:50:02.847Z,31.00
2022-12-05T14:52:31.584Z,27.97
2022-12-05T14:55:03.321Z,34.20
2022-12-05T14:57:33.152Z,26.33
2022-12-05T15:00:09.258Z,30.07
2022-12-05T15:02:45.297Z,30.67
2022-12-05T15:05:26.249Z,40.43
2022-12-05T15:07:55.594Z,35.03
2022-12-05T15:13:03.058Z,32.83
2022-12-05T15:15:54.967Z,31.13
2022-12-05T15:18:28.095Z,38.57
2022-12-05T15:20:57.828Z,36.40
2022-12-05T15:23:44.764Z,35.63
2022-12-05T15:26:45.447Z,36.20
2022-12-05T15:29:06.845Z,27.43
2022-12-05T15:31:44.548Z,39.10
2022-12-05T15:34:50.278Z,35.90
2022-12-05T15:37:29.252Z,34.33
2022-12-05T15:40:17.922Z,36.33
2022-12-05T15:42:47.719Z,30.95
2022-12-05T15:45:14.840Z,31.43
2022-12-05T15:47:50.249Z,31.40
2022-12-05T15:50:23.361Z,35.57
2022-12-05T15:52:54.912Z,29.33
2022-12-05T15:55:31.095Z,35.03
2022-12-05T15:58:22.828Z,32.60
2022-12-05T16:00:54.172Z,37.33
2022-12-05T16:03:28.344Z,37.60
2022-12-05T16:06:00.665Z,35.30
2022-12-05T16:08:40.734Z,43.13
2022-12-05T16:11:10.024Z,36.50
2022-12-05T16:13:42.742Z,40.28
2022-12-05T16:16:17.056Z,40.63
2022-12-05T16:19:04.632Z,32.87
2022-12-05T16:21:39.128Z,38.07
2022-12-05T16:24:33.068Z,36.23
2022-12-05T16:27:00.066Z,43.57
2022-12-05T16:29:32.639Z,34.37
2022-12-05T16:32:06.500Z,43.77
2022-12-05T16:34:34.274Z,39.07
2022-12-05T16:37:01.408Z,41.73
2022-12-05T16:39:28.897Z,44.03
2022-12-05T16:41:56.445Z,43.67
2022-12-05T16:45:03.482Z,42.87
2022-12-05T16:47:56.191Z,41.63
2022-12-05T16:50:25.017Z,44.53
2022-12-05T16:55:27.237Z,33.20
2022-12-05T16:57:54.522Z,36.73
2022-12-05T17:00:21.665Z,37.43
2022-12-05T17:02:48.869Z,33.10
2022-12-05T17:05:16.789Z,35.47
2022-12-05T17:07:44.378Z,35.40
2022-12-05T17:10:11.216Z,42.30
2022-12-05T17:12:39.469Z,45.97
2022-12-05T17:15:22.355Z,59.10
2022-12-05T17:17:49.437Z,43.83
2022-12-05T17:20:16.386Z,57.03
2022-12-05T17:22:43.553Z,48.63
2022-12-05T17:25:36.226Z,34.13
2022-12-05T17:28:03.313Z,32.93
2022-12-05T17:30:30.059Z,35.63
2022-12-05T17:32:57.155Z,38.53
2022-12-05T17:35:25.195Z,37.23
2022-12-05T17:37:52.294Z,39.20
2022-12-05T17:40:19.028Z,46.80
2022-12-05T17:42:46.173Z,38.77
2022-12-05T17:45:15.478Z,45.30
2022-12-05T17:47:43.030Z,38.93
2022-12-05T17:50:18.276Z,58.70
2022-12-05T17:52:45.579Z,46.23
2022-12-05T17:55:27.018Z,48.87
2022-12-05T17:57:55.174Z,48.23
2022-12-05T18:00:23.800Z,46.47
2022-12-05T18:02:52.535Z,44.60
2022-12-05T18:05:19.632Z,38.85
2022-12-05T18:07:47.538Z,42.87
2022-12-05T18:10:18.014Z,42.30
2022-12-05T18:12:46.613Z,49.53
2022-12-05T18:15:13.918Z,55.58
2022-12-05T18:17:41.623Z,57.10
2022-12-05T18:20:12.804Z,48.50
2022-12-05T18:22:40.156Z,34.97
2022-12-05T18:25:07.243Z,48.77
2022-12-05T18:27:35.886Z,52.13
2022-12-05T18:30:03.792Z,54.95
2022-12-05T18:32:32.729Z,48.43
2022-12-05T18:35:02.069Z,49.83
2022-12-05T18:37:29.857Z,44.60
2022-12-05T18:39:56.914Z,38.50
2022-12-05T18:42:24.047Z,46.03
2022-12-05T18:44:50.956Z,49.67
2022-12-05T18:47:18.620Z,49.30
2022-12-05T18:49:45.448Z,52.13
2022-12-05T18:52:12.605Z,44.53
2022-12-05T18:54:39.430Z,41.10
2022-12-05T18:57:06.497Z,49.80
2022-12-05T18:59:34.310Z,42.90
2022-12-05T19:02:01.994Z,41.90
2022-12-05T19:04:29.493Z,59.63
2022-12-05T19:06:59.508Z,47.00
2022-12-05T19:09:28.785Z,43.13
2022-12-05T19:11:58.008Z,33.30
2022-12-05T19:14:26.820Z,37.45
2022-12-05T19:19:28.171Z,35.23
2022-12-05T19:21:55.721Z,36.50
2022-12-05T19:24:22.429Z,43.10
2022-12-05T19:26:49.820Z,57.83
2022-12-05T19:29:17.093Z,49.83
2022-12-05T19:31:44.790Z,46.53
2022-12-05T19:34:11.756Z,44.57
2022-12-05T19:36:42.006Z,32.23
2022-12-05T19:39:20.264Z,35.20
2022-12-05T19:41:48.130Z,39.45
2022-12-05T19:44:15.457Z,26.47
2022-12-05T19:46:42.612Z,31.73
2022-12-05T19:49:14.111Z,33.87
2022-12-05T19:51:41.985Z,33.87
2022-12-05T19:54:11.405Z,33.23
2022-12-05T19:56:39.433Z,39.73
2022-12-05T19:59:06.983Z,42.47
2022-12-05T20:01:36.752Z,40.70
2022-12-05T20:04:10.625Z,36.27
2022-12-05T20:06:55.799Z,34.70
2022-12-05T20:09:23.053Z,33.90
2022-12-05T20:11:55.052Z,35.33
2022-12-05T20:14:24.374Z,35.90
2022-12-05T20:16:52.270Z,26.27
2022-12-05T20:19:19.216Z,31.60
2022-12-05T20:21:46.384Z,34.03
2022-12-05T20:24:13.251Z,31.27
2022-12-05T20:26:42.398Z,29.73
2022-12-05T20:29:09.525Z,30.58
2022-12-05T20:31:41.806Z,34.70
2022-12-05T20:34:11.538Z,32.83
2022-12-05T20:36:38.714Z,38.07
2022-12-05T20:39:08.418Z,35.23
2022-12-05T20:41:35.560Z,31.97
2022-12-05T20:44:04.874Z,30.37
2022-12-05T20:46:32.844Z,30.93
2022-12-05T20:49:00.136Z,34.90
2022-12-05T20:51:29.718Z,30.90
2022-12-05T20:53:59.055Z,31.23
2022-12-05T20:56:28.800Z,28.27
2022-12-05T20:58:57.645Z,36.93
2022-12-05T21:03:53.298Z,40.13
2022-12-05T21:06:27.732Z,33.50
2022-12-05T21:08:55.329Z,37.67
2022-12-05T21:11:23.952Z,39.20
2022-12-05T21:13:51.533Z,33.28
2022-12-05T21:16:21.060Z,37.43
2022-12-05T21:18:48.649Z,39.07
2022-12-05T21:21:21.621Z,38.53
2022-12-05T21:23:54.541Z,40.80
2022-12-05T21:26:23.336Z,38.73
2022-12-05T21:28:50.438Z,34.33
2022-12-05T21:31:21.718Z,32.40
2022-12-05T21:33:51.333Z,34.87
2022-12-05T21:36:19.336Z,30.83
2022-12-05T21:38:49.554Z,35.80
2022-12-05T21:41:22.047Z,32.93
2022-12-05T21:43:54.083Z,31.50
2022-12-05T21:46:25.224Z,33.17
2022-12-05T21:48:52.613Z,35.88
2022-12-05T21:51:21.045Z,32.73
2022-12-05T21:53:48.011Z,38.43
2022-12-05T21:56:17.680Z,28.97
2022-12-05T21:58:46.433Z,36.03
2022-12-05T22:03:46.974Z,37.27
2022-12-05T22:06:15.417Z,33.57
2022-12-05T22:08:43.294Z,23.10
2022-12-05T22:11:19.277Z,28.75
2022-12-05T22:13:46.437Z,32.23
2022-12-05T22:16:13.622Z,33.47
2022-12-05T22:18:40.436Z,39.27
2022-12-05T22:21:25.457Z,34.07
2022-12-05T22:23:52.204Z,44.90
2022-12-05T22:26:22.490Z,41.27
2022-12-05T22:28:53.983Z,41.60
2022-12-05T22:31:22.197Z,35.53
2022-12-05T22:33:49.917Z,39.03
2022-12-05T22:36:19.171Z,39.23
2022-12-05T22:38:47.559Z,39.67
2022-12-05T22:41:23.396Z,38.05
2022-12-05T22:43:55.153Z,35.40
2022-12-05T22:46:24.891Z,35.77
2022-12-05T22:48:52.303Z,40.80
2022-12-05T22:51:21.433Z,39.93
2022-12-05T22:53:52.547Z,35.78
2022-12-05T22:56:21.220Z,42.17
2022-12-05T22:58:48.310Z,42.15
2022-12-05T23:01:17.842Z,37.97
2022-12-05T23:03:46.222Z,35.07
2022-12-05T23:06:15.573Z,35.83
2022-12-05T23:08:44.117Z,38.97
2022-12-05T23:11:11.857Z,38.60
2022-12-05T23:13:39.779Z,45.07
2022-12-05T23:16:09.704Z,38.25
2022-12-05T23:18:46.836Z,40.17
2022-12-05T23:21:17.972Z,39.63
2022-12-05T23:23:46.119Z,39.40
2022-12-05T23:26:14.345Z,28.98
2022-12-05T23:28:41.659Z,41.80
2022-12-05T23:31:11.022Z,42.10
2022-12-05T23:36:06.953Z,35.90
2022-12-05T23:38:35.328Z,38.30
2022-12-05T23:41:08.817Z,33.95
2022-12-05T23:43:36.846Z,36.23
2022-12-05T23:46:06.038Z,25.35
2022-12-05T23:48:33.509Z,30.90
2022-12-05T23:51:08.078Z,34.30
2022-12-05T23:53:37.276Z,35.40
2022-12-05T23:56:10.160Z,35.77
2022-12-05T23:58:37.565Z,33.07
